Time;durP1;ratioP1;P1;durP2;ratioP2;P2;SDS_P1;SDS_P2;PMS_P1;PMS_P2;Temp;Humidity;BMP_temperature;BMP_pressure;BME280_temperature;BME280_humidity;BME280_pressure;Samples;Min_cycle;Max_cycle;Signal;HPM_P1;HPM_P2
2021/08/18 00:00:20;;;;;;;6.77;6.13;;;;;;;14.10;97.50;101440.03;2106734;28;20051;-60
2021/08/18 00:01:20;;;;;;;7.25;6.72;;;;;;;14.10;97.47;101434.78;2106631;28;20449;-60
2021/08/18 00:02:20;;;;;;;8.70;7.00;;;;;;;14.10;97.46;101434.78;2106703;28;20031;-60
2021/08/18 00:03:21;;;;;;;9.43;8.17;;;;;;;14.10;97.37;101437.41;2097747;28;20095;-60
2021/08/18 00:04:21;;;;;;;7.20;6.70;;;;;;;14.11;97.37;101436.50;2097813;28;20253;-60
2021/08/18 00:05:21;;;;;;;7.03;6.43;;;;;;;14.11;97.37;101436.50;2106662;28;20160;-61
2021/08/18 00:06:21;;;;;;;8.53;7.83;;;;;;;14.11;97.40;101436.50;2106577;28;20036;-61
2021/08/18 00:07:22;;;;;;;7.13;6.53;;;;;;;14.12;97.61;101438.22;2106575;28;20481;-60
2021/08/18 00:08:22;;;;;;;7.27;6.30;;;;;;;14.12;97.45;101438.22;2106764;28;20024;-60
2021/08/18 00:09:22;;;;;;;9.10;7.57;;;;;;;14.10;97.29;101434.78;2106712;28;20093;-60
2021/08/18 00:10:24;;;;;;;8.03;7.33;;;;;;;14.11;97.46;101430.41;2106718;28;20028;-61
2021/08/18 00:11:25;;;;;;;7.18;6.57;;;;;;;14.10;97.56;101440.03;2106536;28;20042;-60
2021/08/18 00:12:25;;;;;;;7.67;6.97;;;;;;;14.10;97.34;101432.16;2106734;28;20036;-60
2021/08/18 00:13:26;;;;;;;8.27;7.47;;;;;;;14.10;97.44;101429.53;2106679;28;20176;-61
2021/08/18 00:14:26;;;;;;;8.20;7.40;;;;;;;14.09;97.56;101433.09;2106677;28;20031;-61
2021/08/18 00:15:27;;;;;;;7.87;7.17;;;;;;;14.09;97.39;101424.41;2106615;28;20020;-60
2021/08/18 00:16:27;;;;;;;7.40;6.70;;;;;;;14.08;97.48;101426.16;2106662;28;20328;-61
2021/08/18 00:17:27;;;;;;;7.70;7.00;;;;;;;14.09;97.43;101427.84;2106744;28;20492;-60
2021/08/18 00:18:28;;;;;;;7.83;7.23;;;;;;;14.08;97.39;101426.16;2106645;28;20051;-60
2021/08/18 00:19:28;;;;;;;8.27;7.63;;;;;;;14.08;97.37;101426.16;2106691;28;20028;-61
2021/08/18 00:20:30;;;;;;;7.00;6.40;;;;;;;14.09;97.33;101419.97;2106609;28;20073;-60
2021/08/18 00:21:30;;;;;;;7.95;7.25;;;;;;;14.07;97.60;101424.47;2097632;28;20021;-60
2021/08/18 00:22:31;;;;;;;9.03;8.33;;;;;;;14.08;97.36;101420.91;2097688;28;20021;-60
2021/08/18 00:23:31;;;;;;;8.87;8.17;;;;;;;14.07;97.54;101424.47;2107112;28;20040;-60
2021/08/18 00:24:31;;;;;;;7.73;7.13;;;;;;;14.08;97.46;101431.41;2108313;28;20067;-60
2021/08/18 00:25:32;;;;;;;7.97;7.33;;;;;;;14.09;97.40;101432.28;2108347;28;20053;-59
2021/08/18 00:26:32;;;;;;;7.53;6.85;;;;;;;14.06;97.27;101428.00;2108319;28;20043;-60
2021/08/18 00:27:33;;;;;;;8.80;8.10;;;;;;;14.07;97.35;101426.22;2108278;28;20028;-60
2021/08/18 00:28:33;;;;;;;7.47;6.80;;;;;;;14.06;97.34;101425.38;2108323;28;20032;-60
2021/08/18 00:29:33;;;;;;;7.93;7.33;;;;;;;14.08;97.28;101426.16;2108357;28;20024;-61
2021/08/18 00:30:34;;;;;;;7.70;7.10;;;;;;;14.06;97.25;101428.00;2099288;28;20067;-61
2021/08/18 00:31:34;;;;;;;7.95;7.25;;;;;;;14.06;97.40;101421.91;2099325;28;20115;-61
2021/08/18 00:32:34;;;;;;;7.17;6.53;;;;;;;14.07;97.44;101424.47;2108338;28;20031;-60
2021/08/18 00:33:35;;;;;;;7.37;6.77;;;;;;;14.07;97.18;101427.09;2099325;28;20023;-60
2021/08/18 00:34:36;;;;;;;7.60;6.97;;;;;;;14.09;97.39;101425.22;2099390;28;20024;-60
2021/08/18 00:35:36;;;;;;;7.93;7.28;;;;;;;14.07;97.57;101419.22;2108090;28;20020;-60
2021/08/18 00:36:36;;;;;;;9.23;8.43;;;;;;;14.10;97.45;101428.72;2108334;28;20031;-60
2021/08/18 00:37:36;;;;;;;8.23;7.47;;;;;;;14.09;97.27;101427.03;2108233;28;20024;-60
2021/08/18 00:38:37;;;;;;;8.17;7.50;;;;;;;14.07;97.43;101413.97;2108240;28;20108;-60
2021/08/18 00:39:37;;;;;;;7.63;7.00;;;;;;;14.09;97.46;101425.22;2108192;28;20481;-60
2021/08/18 00:40:37;;;;;;;8.43;7.70;;;;;;;14.09;97.58;101419.97;2108155;28;20055;-60
2021/08/18 00:41:38;;;;;;;7.53;6.93;;;;;;;14.10;97.48;101426.91;2108189;28;20107;-61
2021/08/18 00:42:39;;;;;;;8.40;7.10;;;;;;;14.09;97.32;101422.59;2108156;28;20032;-60
2021/08/18 00:43:39;;;;;;;;;;;;;;;14.10;97.44;101423.47;2108628;28;20031;-61
2021/08/18 00:44:39;;;;;;;16.60;7.80;;;;;;;14.08;97.49;101426.16;2108139;28;19912;-61
2021/08/18 00:45:40;;;;;;;7.70;7.00;;;;;;;14.09;97.36;101429.66;2108128;28;20314;-60
2021/08/18 00:46:47;;;;;;;7.13;6.53;;;;;;;14.06;97.47;101422.75;2099050;28;20020;-61
2021/08/18 00:47:52;;;;;;;9.00;8.30;;;;;;;14.10;97.54;101420.84;2099030;28;20024;-60
2021/08/18 00:48:53;;;;;;;7.68;6.93;;;;;;;14.10;97.51;101424.28;2099669;28;20573;-60
2021/08/18 00:49:53;;;;;;;8.57;7.03;;;;;;;14.09;97.40;101421.78;2108133;28;20111;-60
2021/08/18 00:50:54;;;;;;;6.65;6.05;;;;;;;14.10;97.45;101423.47;2108075;28;20038;-59
2021/08/18 00:51:55;;;;;;;7.83;7.10;;;;;;;14.08;97.41;101420.91;2108094;28;20037;-61
2021/08/18 00:52:56;;;;;;;6.72;6.03;;;;;;;14.08;97.54;101423.53;2108022;28;20053;-60
2021/08/18 00:53:56;;;;;;;8.13;7.43;;;;;;;14.10;97.45;101421.66;2108128;28;20040;-60
2021/08/18 00:54:56;;;;;;;9.07;6.93;;;;;;;14.09;97.54;101427.84;2108140;28;20297;-61
2021/08/18 00:55:57;;;;;;;7.63;7.03;;;;;;;14.09;97.51;101425.22;2108061;28;20167;-60
2021/08/18 00:57:00;;;;;;;7.53;6.85;;;;;;;14.10;97.76;101421.66;2108045;28;20032;-61
2021/08/18 00:58:02;;;;;;;7.93;7.22;;;;;;;14.10;97.63;101433.97;2108103;28;20481;-60
2021/08/18 00:59:03;;;;;;;8.00;7.30;;;;;;;14.09;97.41;101425.22;2107922;28;20030;-61
2021/08/18 01:00:09;;;;;;;7.28;6.65;;;;;;;14.10;97.49;101418.22;2108049;28;20066;-61
2021/08/18 01:01:09;;;;;;;7.63;7.00;;;;;;;14.10;97.62;101423.47;2108046;28;20032;-61
2021/08/18 01:02:09;;;;;;;7.43;6.83;;;;;;;14.09;97.40;101427.03;2107937;28;20504;-61
2021/08/18 01:03:09;;;;;;;7.30;6.60;;;;;;;14.09;97.56;101422.59;2108005;28;20477;-60
2021/08/18 01:04:10;;;;;;;7.53;7.00;;;;;;;14.10;97.69;101423.47;2098944;28;20485;-61
2021/08/18 01:05:20;;;;;;;8.43;7.03;;;;;;;14.10;97.55;101429.53;2099084;28;20071;-61
2021/08/18 01:06:20;;;;;;;7.50;6.72;;;;;;;14.09;97.49;101427.84;2107886;28;20020;-62
2021/08/18 01:07:21;;;;;;;7.20;6.70;;;;;;;14.10;97.50;101419.03;2098802;28;20031;-60
2021/08/18 01:08:21;;;;;;;6.77;6.27;;;;;;;14.10;97.48;101418.22;2099069;28;20052;-60
2021/08/18 01:09:22;;;;;;;6.83;6.27;;;;;;;14.09;97.57;101419.16;2107934;28;20500;-61
2021/08/18 01:10:29;;;;;;;7.35;6.78;;;;;;;14.10;97.45;101424.28;2098926;28;20020;-61
2021/08/18 01:11:29;;;;;;;7.28;6.57;;;;;;;14.09;97.52;101417.34;2099647;28;20154;-60
2021/08/18 01:12:29;;;;;;;8.07;7.20;;;;;;;14.11;97.51;101425.16;2107927;28;20073;-60
2021/08/18 01:13:29;;;;;;;7.83;7.23;;;;;;;14.12;97.52;101418.97;2107927;28;20027;-60
2021/08/18 01:14:30;;;;;;;6.90;6.40;;;;;;;14.13;97.54;101420.69;2107908;28;20096;-61
2021/08/18 01:15:31;;;;;;;7.33;6.63;;;;;;;14.13;97.61;101421.53;2107888;28;20023;-61
2021/08/18 01:16:39;;;;;;;8.15;7.47;;;;;;;14.13;97.60;101418.06;2107965;28;20445;-60
2021/08/18 01:17:41;;;;;;;7.60;7.00;;;;;;;14.15;97.67;101430.19;2107839;28;20122;-60
2021/08/18 01:18:41;;;;;;;7.78;6.95;;;;;;;14.14;97.57;101425.84;2107916;28;20089;-60
2021/08/18 01:19:42;;;;;;;6.90;6.30;;;;;;;14.16;97.63;101429.25;2107849;28;20020;-61
2021/08/18 01:20:43;;;;;;;7.53;6.93;;;;;;;14.16;97.48;101436.28;2107847;28;20057;-60
2021/08/18 01:21:45;;;;;;;6.57;6.07;;;;;;;14.13;97.42;101426.78;2107903;28;20030;-61
2021/08/18 01:22:46;;;;;;;7.07;6.47;;;;;;;14.15;97.47;101430.19;2107910;28;20027;-60
2021/08/18 01:23:46;;;;;;;8.23;7.53;;;;;;;14.14;97.53;101425.84;2107778;28;20028;-60
2021/08/18 01:24:47;;;;;;;8.23;7.40;;;;;;;14.14;97.33;101425.84;2107858;28;20028;-60
2021/08/18 01:25:47;;;;;;;7.50;7.00;;;;;;;14.14;97.60;101423.22;2107856;28;20107;-60
2021/08/18 01:26:47;;;;;;;9.17;8.47;;;;;;;14.14;97.66;101425.84;2107695;28;20028;-61
2021/08/18 01:27:53;;;;;;;9.47;7.37;;;;;;;14.15;97.30;101426.72;2107800;28;20378;-60
2021/08/18 01:28:53;;;;;;;6.97;6.38;;;;;;;14.15;97.56;101422.31;2107823;28;20479;-60
2021/08/18 01:29:54;;;;;;;7.93;7.23;;;;;;;14.16;97.57;101429.25;2107757;28;20103;-61
2021/08/18 01:30:55;;;;;;;8.57;7.78;;;;;;;14.14;97.34;101423.22;2107784;28;20019;-62
2021/08/18 01:31:57;;;;;;;;;;;;;;;14.14;97.38;101428.47;2108318;28;20032;-60
2021/08/18 01:33:07;;;;;;;8.15;7.45;;;;;;;14.14;97.40;101423.22;2107751;28;20375;-61
2021/08/18 01:34:07;;;;;;;7.85;7.05;;;;;;;14.13;97.46;101423.31;2107721;28;20528;-60
2021/08/18 01:35:16;;;;;;;8.27;7.50;;;;;;;14.15;97.56;101424.09;2106570;28;20040;-60
2021/08/18 01:36:19;;;;;;;7.50;6.90;;;;;;;14.16;97.43;101428.41;2107535;28;20016;-61
2021/08/18 01:37:19;;;;;;;8.30;7.70;;;;;;;14.15;97.52;101421.47;2107637;28;20027;-60
2021/08/18 01:38:20;;;;;;;8.83;8.00;;;;;;;14.14;97.47;101423.22;2107702;28;20388;-61
2021/08/18 01:39:21;;;;;;;8.50;7.80;;;;;;;14.16;97.33;101417.91;2107687;28;20101;-60
2021/08/18 01:40:22;;;;;;;9.17;7.83;;;;;;;14.15;97.55;101424.94;2107760;28;20020;-60
2021/08/18 01:41:23;;;;;;;8.30;7.50;;;;;;;14.16;97.54;101424.00;2098554;28;20024;-60
2021/08/18 01:42:23;;;;;;;7.70;7.07;;;;;;;14.16;97.43;101417.91;2098723;28;20029;-61
2021/08/18 01:43:23;;;;;;;8.50;7.73;;;;;;;14.15;97.46;101422.31;2107664;28;20024;-60
2021/08/18 01:44:24;;;;;;;8.18;7.18;;;;;;;14.14;97.62;101420.59;2107721;28;20066;-61
2021/08/18 01:45:33;;;;;;;8.30;7.47;;;;;;;14.15;97.51;101422.31;2107725;28;20493;-60
2021/08/18 01:46:33;;;;;;;7.38;6.78;;;;;;;14.16;97.45;101421.38;2107618;28;20473;-60
2021/08/18 01:47:34;;;;;;;7.53;6.93;;;;;;;14.16;97.48;101421.38;2098466;28;20032;-60
2021/08/18 01:48:35;;;;;;;8.63;6.87;;;;;;;14.16;97.52;101423.16;2098651;28;20470;-61
2021/08/18 01:49:35;;;;;;;;;;;;;;;14.16;97.48;101418.75;2108108;28;20028;-61
2021/08/18 01:50:36;;;;;;;7.38;6.75;;;;;;;14.20;97.64;101429.13;2107662;28;20408;-60
2021/08/18 01:51:36;;;;;;;7.95;7.35;;;;;;;14.20;97.52;101422.06;2107597;28;20099;-60
2021/08/18 01:52:36;;;;;;;7.57;6.87;;;;;;;14.20;97.58;101418.63;2107617;28;20412;-60
2021/08/18 01:53:42;;;;;;;7.90;7.30;;;;;;;14.22;97.32;101422.00;2107615;28;20036;-61
2021/08/18 01:54:42;;;;;;;7.53;6.80;;;;;;;14.22;97.62;101416.75;2107452;28;20039;-61
2021/08/18 01:55:43;;;;;;;7.63;6.83;;;;;;;14.23;97.62;101428.97;2107579;28;20074;-61
2021/08/18 01:56:43;;;;;;;8.15;7.45;;;;;;;14.24;97.47;101425.41;2098493;28;20081;-61
2021/08/18 01:57:43;;;;;;;8.13;7.13;;;;;;;14.23;97.88;101419.31;2098588;28;20024;-60
2021/08/18 01:58:46;;;;;;;8.10;7.40;;;;;;;14.25;97.56;101416.59;2107481;28;20023;-61
2021/08/18 01:59:46;;;;;;;8.25;7.65;;;;;;;14.24;97.41;101426.25;2107467;28;20055;-60
2021/08/18 02:00:47;;;;;;;8.23;7.57;;;;;;;14.25;97.73;101427.09;2107510;28;20024;-61
2021/08/18 02:01:47;;;;;;;7.93;7.22;;;;;;;14.26;97.55;101423.56;2107539;28;20027;-61
2021/08/18 02:02:48;;;;;;;8.17;7.50;;;;;;;14.25;97.48;101422.72;2098542;28;20030;-61
2021/08/18 02:03:50;;;;;;;9.13;8.38;;;;;;;14.26;97.83;101423.56;2098521;28;20111;-61
2021/08/18 02:04:50;;;;;;;8.40;7.68;;;;;;;14.27;97.46;101420.03;2107502;28;20024;-61
2021/08/18 02:05:50;;;;;;;10.53;9.50;;;;;;;14.29;97.65;101428.66;2107360;28;20056;-60
2021/08/18 02:06:51;;;;;;;8.77;7.97;;;;;;;14.29;97.80;101424.28;2107424;28;20085;-60
2021/08/18 02:07:51;;;;;;;7.90;7.20;;;;;;;14.26;97.79;101421.78;2107603;28;20081;-61
2021/08/18 02:08:51;;;;;;;8.83;7.83;;;;;;;14.27;97.64;101418.22;2107516;28;20036;-60
2021/08/18 02:09:51;;;;;;;7.27;6.67;;;;;;;14.28;97.46;101416.47;2098458;28;20054;-60
2021/08/18 02:10:52;;;;;;;7.73;6.80;;;;;;;14.25;97.67;101420.09;2098497;28;20133;-60
2021/08/18 02:11:52;;;;;;;8.17;7.47;;;;;;;14.26;97.73;101423.56;2107283;28;20112;-60
2021/08/18 02:12:52;;;;;;;9.27;8.43;;;;;;;14.26;97.47;101423.56;2107382;28;20457;-60
2021/08/18 02:13:53;;;;;;;9.00;8.30;;;;;;;14.26;97.46;101419.16;2107435;28;20086;-60
2021/08/18 02:14:54;;;;;;;10.40;7.78;;;;;;;14.26;97.24;101421.78;2107416;28;20062;-60
2021/08/18 02:15:54;;;;;;;8.43;7.55;;;;;;;14.29;97.64;101420.78;2107383;28;20027;-61
2021/08/18 02:16:54;;;;;;;9.52;7.22;;;;;;;14.28;97.57;101416.47;2098295;28;20020;-61
2021/08/18 02:17:56;;;;;;;10.17;8.70;;;;;;;14.29;97.62;101415.53;2098516;28;20044;-61
2021/08/18 02:18:56;;;;;;;8.88;8.18;;;;;;;14.26;97.35;101418.31;2107359;28;20032;-61
2021/08/18 02:19:57;;;;;;;11.20;8.80;;;;;;;14.27;97.73;101415.59;2107391;28;20020;-61
2021/08/18 02:20:57;;;;;;;9.50;8.67;;;;;;;14.27;97.65;101426.09;2107300;28;20103;-61
2021/08/18 02:21:58;;;;;;;9.27;8.48;;;;;;;14.28;97.48;101421.72;2098297;28;20124;-60
2021/08/18 02:22:59;;;;;;;8.60;7.97;;;;;;;14.27;97.45;101412.16;2098433;28;20036;-60
2021/08/18 02:23:59;;;;;;;8.85;8.05;;;;;;;14.27;97.70;101423.47;2107374;28;20032;-61
2021/08/18 02:24:59;;;;;;;9.97;9.13;;;;;;;14.27;97.55;101420.03;2107266;28;20034;-59
2021/08/18 02:25:59;;;;;;;9.00;8.10;;;;;;;14.27;97.70;101425.28;2107348;28;20042;-61
2021/08/18 02:26:59;;;;;;;9.47;8.57;;;;;;;14.27;97.73;101414.78;2107298;28;20032;-60
2021/08/18 02:28:00;;;;;;;8.10;7.50;;;;;;;14.25;97.46;101416.59;2107388;28;20024;-60
2021/08/18 02:29:00;;;;;;;7.83;7.10;;;;;;;14.27;97.46;101412.16;2107334;28;20039;-61
2021/08/18 02:30:01;;;;;;;8.60;7.80;;;;;;;14.26;97.54;101416.53;2107358;28;20472;-61
2021/08/18 02:31:01;;;;;;;8.93;8.05;;;;;;;14.26;97.70;101418.31;2107282;28;20532;-61
2021/08/18 02:32:02;;;;;;;9.40;8.53;;;;;;;14.29;97.60;101423.41;2107261;28;20027;-62
2021/08/18 02:33:03;;;;;;;10.73;9.85;;;;;;;14.27;97.66;101415.59;2107338;28;20063;-61
2021/08/18 02:34:03;;;;;;;;;;;;;;;14.28;97.42;101417.31;2107652;28;20028;-62
2021/08/18 02:35:04;;;;;;;8.20;7.60;;;;;;;14.28;97.59;101421.72;2107303;28;19916;-61
2021/08/18 02:36:05;;;;;;;8.13;7.43;;;;;;;14.29;97.74;101413.78;2107128;28;20032;-61
2021/08/18 02:37:06;;;;;;;10.15;9.05;;;;;;;14.29;97.74;101419.03;2107279;28;20028;-61
2021/08/18 02:38:07;;;;;;;9.68;8.88;;;;;;;14.28;97.38;101411.22;2098325;28;20067;-60
2021/08/18 02:39:08;;;;;;;;;;;;;;;14.28;97.37;101411.22;2098780;28;20040;-61
2021/08/18 02:40:10;;;;;;;8.50;7.80;;;;;;;14.29;97.64;101412.91;2107258;28;19912;-60
2021/08/18 02:41:10;;;;;;;9.32;8.48;;;;;;;14.29;97.61;101407.66;2107201;28;20427;-61
2021/08/18 02:42:11;;;;;;;9.83;8.53;;;;;;;14.29;97.63;101412.91;2098162;28;20024;-60
2021/08/18 02:43:11;;;;;;;9.70;8.63;;;;;;;14.26;97.57;101407.81;2089881;28;20029;-60
2021/08/18 02:44:11;;;;;;;8.27;7.50;;;;;;;14.28;97.50;101412.06;2098273;28;20289;-61
2021/08/18 02:45:12;;;;;;;10.77;9.67;;;;;;;14.27;97.45;101414.78;2106999;28;20027;-61
2021/08/18 02:46:12;;;;;;;14.60;9.63;;;;;;;14.27;97.58;101406.91;2106806;28;20103;-60
2021/08/18 02:47:12;;;;;;;8.67;7.97;;;;;;;14.28;97.80;101411.22;2107098;28;20039;-61
2021/08/18 02:48:12;;;;;;;9.15;8.35;;;;;;;14.26;97.44;101413.91;2107127;28;20081;-61
2021/08/18 02:49:13;;;;;;;9.63;8.83;;;;;;;14.27;97.41;101412.16;2107051;28;20034;-60
2021/08/18 02:50:15;;;;;;;8.70;7.80;;;;;;;14.26;97.74;101413.91;2107125;28;20396;-61
2021/08/18 02:51:15;;;;;;;8.80;8.00;;;;;;;14.25;97.77;101406.09;2098032;28;20016;-61
2021/08/18 02:52:16;;;;;;;9.73;8.83;;;;;;;14.25;97.80;101408.72;2098034;28;20393;-60
2021/08/18 02:53:16;;;;;;;9.17;8.17;;;;;;;14.23;97.68;101407.97;2089983;28;20551;-61
2021/08/18 02:54:16;;;;;;;8.47;7.77;;;;;;;14.23;97.82;101414.06;2098146;28;20028;-61
2021/08/18 02:55:17;;;;;;;8.73;8.00;;;;;;;14.24;97.61;101409.66;2107086;28;20068;-61
2021/08/18 02:56:17;;;;;;;8.27;7.57;;;;;;;14.25;97.45;101411.34;2107153;28;20034;-61
2021/08/18 02:57:17;;;;;;;9.13;8.10;;;;;;;14.24;97.63;101409.66;2098108;28;20285;-61
2021/08/18 02:58:18;;;;;;;9.57;8.67;;;;;;;14.26;97.83;101405.19;2098183;28;20177;-61
2021/08/18 02:59:18;;;;;;;9.00;8.30;;;;;;;14.26;97.91;101410.44;2107022;28;20047;-61
2021/08/18 03:00:18;;;;;;;8.67;8.07;;;;;;;14.27;97.67;101406.91;2107161;28;20024;-61
2021/08/18 03:01:19;;;;;;;9.27;8.57;;;;;;;14.27;97.86;101404.28;2107056;28;20286;-61
2021/08/18 03:02:20;;;;;;;9.20;8.40;;;;;;;14.26;98.06;101402.56;2107066;28;20020;-61
2021/08/18 03:03:20;;;;;;;9.68;8.82;;;;;;;14.27;97.57;101404.28;2098052;28;20557;-61
2021/08/18 03:04:20;;;;;;;8.17;7.47;;;;;;;14.26;97.49;101407.81;2098188;28;20044;-60
2021/08/18 03:05:20;;;;;;;9.37;8.57;;;;;;;14.27;97.77;101410.34;2107178;28;20571;-60
2021/08/18 03:06:21;;;;;;;8.83;7.93;;;;;;;14.28;97.83;101405.97;2107025;28;20108;-60
2021/08/18 03:07:21;;;;;;;8.67;7.97;;;;;;;14.28;97.59;101405.97;2106922;28;20693;-61
2021/08/18 03:08:21;;;;;;;7.77;7.07;;;;;;;14.28;97.44;101403.34;2107039;28;20153;-61
2021/08/18 03:09:22;;;;;;;8.20;7.50;;;;;;;14.27;97.75;101404.28;2107063;28;20024;-60
2021/08/18 03:10:22;;;;;;;7.38;6.78;;;;;;;14.27;97.58;101404.28;2107032;28;20027;-61
2021/08/18 03:11:23;;;;;;;8.57;7.88;;;;;;;14.29;97.78;101407.66;2106961;28;20012;-61
2021/08/18 03:12:23;;;;;;;7.37;6.77;;;;;;;14.29;97.76;101412.91;2107011;28;20035;-61
2021/08/18 03:13:23;;;;;;;9.43;8.53;;;;;;;14.29;97.55;101407.66;2097860;28;20036;-60
2021/08/18 03:14:23;;;;;;;8.53;7.83;;;;;;;14.29;97.69;101407.66;2098067;28;20024;-61
2021/08/18 03:15:24;;;;;;;8.80;8.17;;;;;;;14.29;97.69;101412.91;2106894;28;20020;-61
2021/08/18 03:16:24;;;;;;;8.07;7.27;;;;;;;14.28;97.67;101408.59;2107018;28;20043;-60
2021/08/18 03:17:25;;;;;;;9.70;8.37;;;;;;;14.27;97.85;101404.28;2106986;28;20019;-60
2021/08/18 03:18:27;;;;;;;8.38;7.57;;;;;;;14.28;97.75;101417.31;2106959;28;20047;-60
2021/08/18 03:19:28;;;;;;;8.20;7.40;;;;;;;14.28;97.58;101406.81;2106990;28;20099;-61
2021/08/18 03:20:28;;;;;;;8.50;7.63;;;;;;;14.27;97.86;101409.53;2106907;28;20465;-61
2021/08/18 03:21:28;;;;;;;8.50;7.80;;;;;;;14.28;97.60;101413.84;2106899;28;20018;-61
2021/08/18 03:22:28;;;;;;;8.73;6.97;;;;;;;14.28;97.88;101405.97;2097832;28;20024;-61
2021/08/18 03:23:29;;;;;;;8.33;7.47;;;;;;;14.27;97.63;101409.53;2098047;28;20058;-60
2021/08/18 03:24:29;;;;;;;9.52;8.73;;;;;;;14.25;97.66;101406.97;2106972;28;20364;-61
2021/08/18 03:25:29;;;;;;;9.20;8.40;;;;;;;14.25;97.78;101412.22;2097803;28;20112;-61
2021/08/18 03:26:30;;;;;;;8.03;7.33;;;;;;;14.26;97.74;101410.44;2089663;28;20048;-60
2021/08/18 03:27:30;;;;;;;8.37;7.43;;;;;;;14.27;97.80;101409.53;2097819;28;20103;-61
2021/08/18 03:28:30;;;;;;;7.33;6.73;;;;;;;14.27;97.68;101409.53;2106886;28;20102;-60
2021/08/18 03:29:31;;;;;;;8.90;8.00;;;;;;;14.26;97.69;101406.03;2106888;28;20714;-60
2021/08/18 03:30:31;;;;;;;7.20;6.60;;;;;;;14.26;97.83;101408.66;2106909;28;20024;-60
2021/08/18 03:31:31;;;;;;;7.77;7.13;;;;;;;14.26;97.79;101415.69;2106875;28;20023;-60
2021/08/18 03:32:32;;;;;;;7.80;7.20;;;;;;;14.26;97.98;101407.81;2106880;28;20107;-61
2021/08/18 03:33:32;;;;;;;8.80;7.22;;;;;;;14.25;97.79;101406.97;2106882;28;20473;-60
2021/08/18 03:34:33;;;;;;;8.27;7.57;;;;;;;14.25;97.87;101411.34;2106911;28;20028;-61
2021/08/18 03:35:33;;;;;;;8.80;7.53;;;;;;;14.26;97.89;101410.44;2106875;28;20067;-61
2021/08/18 03:36:33;;;;;;;8.50;7.80;;;;;;;14.26;97.90;101415.69;2106756;28;20028;-60
2021/08/18 03:37:33;;;;;;;7.93;7.23;;;;;;;14.27;98.00;101420.03;2106810;28;20066;-60
2021/08/18 03:38:35;;;;;;;7.63;6.60;;;;;;;14.26;97.84;101418.31;2097892;28;20036;-60
2021/08/18 03:39:35;;;;;;;8.85;8.02;;;;;;;14.26;97.89;101418.31;2098040;28;20028;-61
2021/08/18 03:40:35;;;;;;;8.37;7.47;;;;;;;14.26;97.95;101413.06;2106858;28;20027;-60
2021/08/18 03:41:36;;;;;;;7.37;6.77;;;;;;;14.25;97.94;101413.97;2106866;28;20024;-60
2021/08/18 03:42:36;;;;;;;7.93;7.13;;;;;;;14.26;97.75;101415.69;2106821;28;20281;-61
2021/08/18 03:43:36;;;;;;;8.10;7.40;;;;;;;14.25;97.75;101413.97;2106845;28;20130;-60
2021/08/18 03:44:37;;;;;;;8.20;7.47;;;;;;;14.26;97.80;101418.31;2106880;28;20028;-60
2021/08/18 03:45:37;;;;;;;9.13;8.00;;;;;;;14.26;97.92;101420.94;2106839;28;20031;-61
2021/08/18 03:46:37;;;;;;;9.87;7.90;;;;;;;14.25;97.91;101420.09;2106858;28;20047;-60
2021/08/18 03:47:38;;;;;;;6.87;6.37;;;;;;;14.25;97.90;101421.84;2106705;28;20035;-60
2021/08/18 03:48:38;;;;;;;8.50;7.32;;;;;;;14.26;98.00;101420.94;2097843;28;20091;-60
2021/08/18 03:49:38;;;;;;;7.50;6.90;;;;;;;14.26;98.04;101420.94;2097831;28;20039;-60
2021/08/18 03:50:39;;;;;;;8.30;7.47;;;;;;;14.26;98.15;101419.16;2106707;28;20020;-60
2021/08/18 03:51:39;;;;;;;8.40;7.63;;;;;;;14.25;97.94;101416.59;2106787;28;20031;-61
2021/08/18 03:52:41;;;;;;;9.30;8.50;;;;;;;14.25;97.83;101416.59;2097890;28;20294;-61
2021/08/18 03:53:41;;;;;;;8.15;7.47;;;;;;;14.25;98.00;101419.22;2097990;28;20083;-60
2021/08/18 03:54:41;;;;;;;7.80;7.23;;;;;;;14.25;97.75;101416.59;2106880;28;20028;-64
2021/08/18 03:55:42;;;;;;;8.67;8.00;;;;;;;14.25;98.04;101412.22;2106739;28;20499;-60
2021/08/18 03:56:42;;;;;;;8.52;7.63;;;;;;;14.26;98.04;101418.31;2106822;28;20373;-61
2021/08/18 03:57:42;;;;;;;7.90;7.10;;;;;;;14.25;98.03;101421.84;2097782;28;20497;-60
2021/08/18 03:58:44;;;;;;;9.13;8.23;;;;;;;14.25;98.03;101416.59;2098730;28;20118;-60
2021/08/18 03:59:44;;;;;;;9.20;7.40;;;;;;;14.25;98.03;101417.47;2099472;28;20433;-61
2021/08/18 04:00:44;;;;;;;8.20;7.40;;;;;;;14.27;97.91;101412.16;2091216;28;20021;-61
2021/08/18 04:01:44;;;;;;;7.43;6.83;;;;;;;14.27;97.93;101409.53;2099402;28;20493;-61
2021/08/18 04:02:45;;;;;;;8.87;7.93;;;;;;;14.27;98.15;101409.53;2108497;28;20028;-61
2021/08/18 04:03:45;;;;;;;9.80;8.90;;;;;;;14.27;98.03;101406.91;2108466;28;20104;-60
2021/08/18 04:04:45;;;;;;;11.33;9.03;;;;;;;14.28;97.85;101411.22;2108495;28;20571;-62
2021/08/18 04:05:46;;;;;;;7.90;7.20;;;;;;;14.29;97.97;101412.91;2108351;28;20473;-60
2021/08/18 04:06:46;;;;;;;8.47;7.73;;;;;;;14.29;97.68;101412.91;2108446;28;20124;-61
2021/08/18 04:07:46;;;;;;;8.53;7.73;;;;;;;14.28;97.95;101408.59;2108480;28;20624;-60
2021/08/18 04:08:46;;;;;;;8.00;7.40;;;;;;;14.29;98.01;101407.66;2108534;28;20031;-60
2021/08/18 04:09:47;;;;;;;8.57;7.77;;;;;;;14.28;97.94;101406.81;2108441;28;20335;-60
2021/08/18 04:10:47;;;;;;;8.77;7.87;;;;;;;14.28;97.97;101405.97;2108551;28;20506;-60
2021/08/18 04:11:47;;;;;;;8.70;8.00;;;;;;;14.29;97.93;101410.28;2108257;28;20175;-61
2021/08/18 04:12:48;;;;;;;7.83;7.23;;;;;;;14.31;97.67;101416.31;2108416;28;20028;-61
2021/08/18 04:13:48;;;;;;;8.82;8.02;;;;;;;14.32;98.00;101411.91;2108329;28;20031;-60
2021/08/18 04:14:48;;;;;;;9.67;8.77;;;;;;;14.29;98.06;101407.66;2108404;28;20031;-61
2021/08/18 04:15:49;;;;;;;9.60;8.70;;;;;;;14.31;98.15;101413.69;2108399;28;20078;-61
2021/08/18 04:16:49;;;;;;;9.00;7.63;;;;;;;14.31;97.99;101407.59;2108356;28;20107;-60
2021/08/18 04:17:49;;;;;;;8.97;8.07;;;;;;;14.31;98.00;101404.97;2108324;28;20140;-61
2021/08/18 04:18:49;;;;;;;8.07;7.47;;;;;;;14.30;98.22;101409.34;2108385;28;20039;-60
2021/08/18 04:19:50;;;;;;;9.03;8.27;;;;;;;14.32;98.01;101411.91;2108387;28;20115;-61
2021/08/18 04:20:50;;;;;;;10.17;7.70;;;;;;;14.31;98.05;101413.69;2108274;28;20035;-61
2021/08/18 04:21:50;;;;;;;8.57;7.80;;;;;;;14.32;97.96;101406.66;2108323;28;20023;-60
2021/08/18 04:22:51;;;;;;;8.80;8.00;;;;;;;14.32;97.92;101414.53;2108436;28;20024;-61
2021/08/18 04:23:52;;;;;;;9.63;8.82;;;;;;;14.33;98.09;101413.63;2108343;28;20074;-61
2021/08/18 04:24:52;;;;;;;9.40;8.60;;;;;;;14.34;98.16;101412.69;2108350;28;20028;-60
2021/08/18 04:25:52;;;;;;;9.90;9.03;;;;;;;14.35;98.07;101411.75;2108282;28;20128;-61
2021/08/18 04:26:52;;;;;;;9.53;8.80;;;;;;;14.36;98.32;101410.81;2108226;28;20028;-60
2021/08/18 04:27:53;;;;;;;10.07;9.20;;;;;;;14.35;98.08;101407.38;2099271;28;20107;-60
2021/08/18 04:28:54;;;;;;;10.23;9.32;;;;;;;14.35;98.26;101410.00;2099351;28;20027;-61
2021/08/18 04:29:54;;;;;;;9.38;8.32;;;;;;;14.36;98.01;101418.69;2108258;28;20039;-61
2021/08/18 04:30:55;;;;;;;10.33;9.43;;;;;;;14.37;98.20;101417.78;2108303;28;20027;-60
2021/08/18 04:31:57;;;;;;;9.65;8.85;;;;;;;14.37;98.42;101421.25;2108184;28;20053;-61
2021/08/18 04:32:57;;;;;;;10.45;9.55;;;;;;;14.36;98.27;101414.31;2108257;28;20385;-61
2021/08/18 04:33:57;;;;;;;11.17;10.27;;;;;;;14.35;98.17;101411.75;2108216;28;20066;-60
2021/08/18 04:34:58;;;;;;;10.30;9.40;;;;;;;14.37;98.19;101416.00;2108234;28;20020;-61
2021/08/18 04:35:58;;;;;;;10.93;9.97;;;;;;;14.37;98.09;101420.41;2099118;28;20114;-61
2021/08/18 04:36:58;;;;;;;11.13;10.00;;;;;;;14.37;98.16;101418.63;2099269;28;20460;-61
2021/08/18 04:37:58;;;;;;;10.63;9.83;;;;;;;14.37;98.18;101418.63;2108180;28;20028;-60
2021/08/18 04:38:59;;;;;;;11.43;10.53;;;;;;;14.38;98.07;101417.72;2108277;28;20055;-61
2021/08/18 04:39:59;;;;;;;12.25;11.02;;;;;;;14.38;98.18;101417.72;2108197;28;20028;-61
2021/08/18 04:40:59;;;;;;;10.13;9.33;;;;;;;14.40;98.04;101420.25;2108319;28;20065;-60
2021/08/18 04:42:00;;;;;;;12.90;11.13;;;;;;;14.44;98.23;101421.78;2108212;28;20028;-61
2021/08/18 04:43:00;;;;;;;11.03;9.93;;;;;;;14.45;98.30;101414.78;2108168;28;20020;-60